sensor_id;sensor_type;location;lat;lon;timestamp;P1;durP1;ratioP1;P2;durP2;ratioP2
50988;SDS011;37008;52.210;21.112;2023-06-22T00:00:58;52.45;;;47.10;;
50988;SDS011;37008;52.210;21.112;2023-06-22T00:03:24;60.72;;;54.10;;
50988;SDS011;37008;52.210;21.112;2023-06-22T00:05:51;54.33;;;48.47;;
50988;SDS011;37008;52.210;21.112;2023-06-22T00:08:17;61.83;;;55.47;;
50988;SDS011;37008;52.210;21.112;2023-06-22T00:10:44;55.20;;;49.40;;
50988;SDS011;37008;52.210;21.112;2023-06-22T00:13:10;51.17;;;46.30;;
50988;SDS011;37008;52.210;21.112;2023-06-22T00:15:37;48.30;;;43.33;;
50988;SDS011;37008;52.210;21.112;2023-06-22T00:18:06;50.72;;;45.35;;
50988;SDS011;37008;52.210;21.112;2023-06-22T00:20:32;51.33;;;45.65;;
50988;SDS011;37008;52.210;21.112;2023-06-22T00:22:59;49.67;;;44.17;;
50988;SDS011;37008;52.210;21.112;2023-06-22T00:25:25;47.45;;;42.67;;
50988;SDS011;37008;52.210;21.112;2023-06-22T00:27:51;49.53;;;44.65;;
50988;SDS011;37008;52.210;21.112;2023-06-22T00:30:17;50.75;;;45.70;;
50988;SDS011;37008;52.210;21.112;2023-06-22T00:32:43;49.83;;;44.55;;
50988;SDS011;37008;52.210;21.112;2023-06-22T00:35:10;51.53;;;46.42;;
50988;SDS011;37008;52.210;21.112;2023-06-22T00:37:37;46.78;;;42.08;;
50988;SDS011;37008;52.210;21.112;2023-06-22T00:40:08;53.22;;;47.95;;
50988;SDS011;37008;52.210;21.112;2023-06-22T00:42:39;55.00;;;49.00;;
50988;SDS011;37008;52.210;21.112;2023-06-22T00:45:05;53.47;;;47.90;;
50988;SDS011;37008;52.210;21.112;2023-06-22T00:47:36;50.47;;;45.28;;
50988;SDS011;37008;52.210;21.112;2023-06-22T00:50:02;50.58;;;45.08;;
50988;SDS011;37008;52.210;21.112;2023-06-22T00:52:31;47.95;;;42.25;;
50988;SDS011;37008;52.210;21.112;2023-06-22T00:55:01;49.25;;;44.03;;
50988;SDS011;37008;52.210;21.112;2023-06-22T00:57:27;53.35;;;47.95;;
50988;SDS011;37008;52.210;21.112;2023-06-22T00:59:53;55.22;;;49.25;;
50988;SDS011;37008;52.210;21.112;2023-06-22T01:02:19;51.72;;;46.28;;
50988;SDS011;37008;52.210;21.112;2023-06-22T01:04:45;59.67;;;53.33;;
50988;SDS011;37008;52.210;21.112;2023-06-22T01:07:55;57.25;;;51.25;;
50988;SDS011;37008;52.210;21.112;2023-06-22T01:10:15;56.42;;;50.78;;
50988;SDS011;37008;52.210;21.112;2023-06-22T01:12:51;54.45;;;49.13;;
50988;SDS011;37008;52.210;21.112;2023-06-22T01:15:25;45.33;;;40.83;;
50988;SDS011;37008;52.210;21.112;2023-06-22T01:17:56;50.45;;;45.20;;
50988;SDS011;37008;52.210;21.112;2023-06-22T01:20:23;47.90;;;43.00;;
50988;SDS011;37008;52.210;21.112;2023-06-22T01:23:17;49.50;;;44.10;;
50988;SDS011;37008;52.210;21.112;2023-06-22T01:31:12;50.17;;;45.25;;
50988;SDS011;37008;52.210;21.112;2023-06-22T01:33:42;50.20;;;44.92;;
50988;SDS011;37008;52.210;21.112;2023-06-22T01:36:10;47.00;;;42.17;;
50988;SDS011;37008;52.210;21.112;2023-06-22T01:38:36;48.95;;;42.70;;
50988;SDS011;37008;52.210;21.112;2023-06-22T01:41:03;46.45;;;41.70;;
50988;SDS011;37008;52.210;21.112;2023-06-22T01:43:29;49.05;;;44.03;;
50988;SDS011;37008;52.210;21.112;2023-06-22T01:45:56;45.53;;;40.70;;
50988;SDS011;37008;52.210;21.112;2023-06-22T01:48:22;46.53;;;41.80;;
50988;SDS011;37008;52.210;21.112;2023-06-22T01:50:49;47.80;;;41.00;;
50988;SDS011;37008;52.210;21.112;2023-06-22T01:53:14;52.03;;;46.38;;
50988;SDS011;37008;52.210;21.112;2023-06-22T01:55:40;47.88;;;42.88;;
50988;SDS011;37008;52.210;21.112;2023-06-22T01:58:06;53.30;;;47.80;;
50988;SDS011;37008;52.210;21.112;2023-06-22T02:00:33;47.22;;;42.22;;
50988;SDS011;37008;52.210;21.112;2023-06-22T02:05:52;53.20;;;47.90;;
50988;SDS011;37008;52.210;21.112;2023-06-22T02:08:22;46.83;;;41.83;;
50988;SDS011;37008;52.210;21.112;2023-06-22T02:10:50;47.47;;;42.75;;
50988;SDS011;37008;52.210;21.112;2023-06-22T02:13:17;50.65;;;43.03;;
50988;SDS011;37008;52.210;21.112;2023-06-22T02:15:45;58.30;;;51.97;;
50988;SDS011;37008;52.210;21.112;2023-06-22T02:18:12;50.50;;;45.20;;
50988;SDS011;37008;52.210;21.112;2023-06-22T02:20:38;48.70;;;43.78;;
50988;SDS011;37008;52.210;21.112;2023-06-22T02:23:05;60.10;;;51.65;;
50988;SDS011;37008;52.210;21.112;2023-06-22T02:25:32;62.58;;;55.65;;
50988;SDS011;37008;52.210;21.112;2023-06-22T02:28:00;66.00;;;58.97;;
50988;SDS011;37008;52.210;21.112;2023-06-22T02:30:25;66.60;;;59.00;;
50988;SDS011;37008;52.210;21.112;2023-06-22T02:32:51;65.50;;;58.10;;
50988;SDS011;37008;52.210;21.112;2023-06-22T02:35:24;63.08;;;56.47;;
50988;SDS011;37008;52.210;21.112;2023-06-22T02:37:50;60.40;;;54.13;;
50988;SDS011;37008;52.210;21.112;2023-06-22T02:40:16;63.67;;;56.97;;
50988;SDS011;37008;52.210;21.112;2023-06-22T02:42:42;57.10;;;51.10;;
50988;SDS011;37008;52.210;21.112;2023-06-22T02:45:09;62.08;;;55.38;;
50988;SDS011;37008;52.210;21.112;2023-06-22T02:47:35;59.58;;;53.10;;
50988;SDS011;37008;52.210;21.112;2023-06-22T02:50:00;59.17;;;53.13;;
50988;SDS011;37008;52.210;21.112;2023-06-22T02:52:26;50.28;;;44.97;;
50988;SDS011;37008;52.210;21.112;2023-06-22T02:54:52;64.60;;;54.15;;
50988;SDS011;37008;52.210;21.112;2023-06-22T02:57:17;64.40;;;57.40;;
50988;SDS011;37008;52.210;21.112;2023-06-22T02:59:43;69.00;;;56.25;;
50988;SDS011;37008;52.210;21.112;2023-06-22T03:02:09;63.25;;;56.38;;
50988;SDS011;37008;52.210;21.112;2023-06-22T03:04:35;64.10;;;57.40;;
50988;SDS011;37008;52.210;21.112;2023-06-22T03:07:01;65.35;;;56.03;;
50988;SDS011;37008;52.210;21.112;2023-06-22T03:09:27;64.78;;;57.70;;
50988;SDS011;37008;52.210;21.112;2023-06-22T03:11:54;68.65;;;61.20;;
50988;SDS011;37008;52.210;21.112;2023-06-22T03:14:20;73.13;;;65.22;;
50988;SDS011;37008;52.210;21.112;2023-06-22T03:16:46;73.68;;;64.63;;
50988;SDS011;37008;52.210;21.112;2023-06-22T03:19:12;74.00;;;65.28;;
50988;SDS011;37008;52.210;21.112;2023-06-22T03:21:38;72.90;;;65.03;;
50988;SDS011;37008;52.210;21.112;2023-06-22T03:24:04;71.85;;;63.92;;
50988;SDS011;37008;52.210;21.112;2023-06-22T03:26:30;69.07;;;61.75;;
50988;SDS011;37008;52.210;21.112;2023-06-22T03:28:56;67.30;;;60.28;;
50988;SDS011;37008;52.210;21.112;2023-06-22T03:31:21;68.28;;;61.13;;
50988;SDS011;37008;52.210;21.112;2023-06-22T03:33:48;69.65;;;58.55;;
50988;SDS011;37008;52.210;21.112;2023-06-22T03:36:14;67.88;;;59.67;;
50988;SDS011;37008;52.210;21.112;2023-06-22T03:38:44;65.65;;;58.60;;
50988;SDS011;37008;52.210;21.112;2023-06-22T03:41:13;65.75;;;57.45;;
50988;SDS011;37008;52.210;21.112;2023-06-22T03:43:39;67.18;;;58.60;;
50988;SDS011;37008;52.210;21.112;2023-06-22T03:46:05;61.85;;;55.13;;
50988;SDS011;37008;52.210;21.112;2023-06-22T03:48:31;60.30;;;53.90;;
50988;SDS011;37008;52.210;21.112;2023-06-22T03:50:56;59.58;;;53.08;;
50988;SDS011;37008;52.210;21.112;2023-06-22T03:53:24;57.97;;;51.97;;
50988;SDS011;37008;52.210;21.112;2023-06-22T03:55:52;59.78;;;52.60;;
50988;SDS011;37008;52.210;21.112;2023-06-22T03:58:19;59.10;;;52.83;;
50988;SDS011;37008;52.210;21.112;2023-06-22T04:00:49;58.05;;;52.08;;
50988;SDS011;37008;52.210;21.112;2023-06-22T04:03:16;58.00;;;51.92;;
50988;SDS011;37008;52.210;21.112;2023-06-22T04:05:45;53.95;;;48.60;;
50988;SDS011;37008;52.210;21.112;2023-06-22T04:08:12;54.22;;;48.90;;
50988;SDS011;37008;52.210;21.112;2023-06-22T04:10:39;50.35;;;45.17;;
50988;SDS011;37008;52.210;21.112;2023-06-22T04:13:04;50.42;;;45.40;;
50988;SDS011;37008;52.210;21.112;2023-06-22T04:15:30;51.65;;;46.45;;
50988;SDS011;37008;52.210;21.112;2023-06-22T04:17:56;51.38;;;46.03;;
50988;SDS011;37008;52.210;21.112;2023-06-22T04:20:22;48.88;;;43.97;;
50988;SDS011;37008;52.210;21.112;2023-06-22T04:22:50;47.45;;;42.90;;
50988;SDS011;37008;52.210;21.112;2023-06-22T04:25:19;48.67;;;43.45;;
50988;SDS011;37008;52.210;21.112;2023-06-22T04:27:45;47.85;;;42.90;;
50988;SDS011;37008;52.210;21.112;2023-06-22T04:30:11;49.22;;;44.17;;
50988;SDS011;37008;52.210;21.112;2023-06-22T04:32:40;45.42;;;40.85;;
50988;SDS011;37008;52.210;21.112;2023-06-22T04:35:06;44.72;;;40.40;;
50988;SDS011;37008;52.210;21.112;2023-06-22T04:37:32;46.08;;;41.53;;
50988;SDS011;37008;52.210;21.112;2023-06-22T04:39:58;46.88;;;42.35;;
50988;SDS011;37008;52.210;21.112;2023-06-22T04:42:27;45.10;;;40.67;;
50988;SDS011;37008;52.210;21.112;2023-06-22T04:44:53;45.15;;;40.80;;
50988;SDS011;37008;52.210;21.112;2023-06-22T04:47:19;46.40;;;41.53;;
50988;SDS011;37008;52.210;21.112;2023-06-22T04:49:45;46.35;;;41.75;;
50988;SDS011;37008;52.210;21.112;2023-06-22T04:52:11;42.58;;;38.17;;
50988;SDS011;37008;52.210;21.112;2023-06-22T04:54:38;43.30;;;39.10;;
50988;SDS011;37008;52.210;21.112;2023-06-22T04:57:06;48.95;;;38.75;;
50988;SDS011;37008;52.210;21.112;2023-06-22T04:59:35;44.45;;;40.03;;
50988;SDS011;37008;52.210;21.112;2023-06-22T05:02:02;43.65;;;39.15;;
50988;SDS011;37008;52.210;21.112;2023-06-22T05:04:28;43.83;;;39.67;;
50988;SDS011;37008;52.210;21.112;2023-06-22T05:06:58;45.30;;;40.85;;
50988;SDS011;37008;52.210;21.112;2023-06-22T05:09:25;47.20;;;42.33;;
50988;SDS011;37008;52.210;21.112;2023-06-22T05:11:51;45.92;;;41.25;;
50988;SDS011;37008;52.210;21.112;2023-06-22T05:14:26;46.70;;;41.80;;
50988;SDS011;37008;52.210;21.112;2023-06-22T05:16:51;46.87;;;42.00;;
50988;SDS011;37008;52.210;21.112;2023-06-22T05:19:17;46.95;;;42.05;;
50988;SDS011;37008;52.210;21.112;2023-06-22T05:21:43;46.50;;;41.78;;
50988;SDS011;37008;52.210;21.112;2023-06-22T05:24:08;47.60;;;42.65;;
50988;SDS011;37008;52.210;21.112;2023-06-22T05:26:34;47.03;;;42.33;;
50988;SDS011;37008;52.210;21.112;2023-06-22T05:29:00;46.15;;;41.42;;
50988;SDS011;37008;52.210;21.112;2023-06-22T05:31:27;49.65;;;43.70;;
50988;SDS011;37008;52.210;21.112;2023-06-22T05:33:54;44.45;;;39.83;;
50988;SDS011;37008;52.210;21.112;2023-06-22T05:36:20;45.45;;;40.85;;
50988;SDS011;37008;52.210;21.112;2023-06-22T05:38:50;46.20;;;41.47;;
50988;SDS011;37008;52.210;21.112;2023-06-22T05:41:18;46.00;;;41.28;;
50988;SDS011;37008;52.210;21.112;2023-06-22T05:43:44;45.58;;;40.88;;
50988;SDS011;37008;52.210;21.112;2023-06-22T05:46:09;47.65;;;42.90;;
50988;SDS011;37008;52.210;21.112;2023-06-22T05:48:35;46.63;;;42.00;;
50988;SDS011;37008;52.210;21.112;2023-06-22T05:51:01;45.63;;;41.00;;
50988;SDS011;37008;52.210;21.112;2023-06-22T05:53:27;49.83;;;44.53;;
50988;SDS011;37008;52.210;21.112;2023-06-22T05:55:53;48.97;;;43.95;;
50988;SDS011;37008;52.210;21.112;2023-06-22T05:58:19;50.17;;;45.10;;
50988;SDS011;37008;52.210;21.112;2023-06-22T06:00:44;54.00;;;47.78;;
50988;SDS011;37008;52.210;21.112;2023-06-22T06:03:12;53.88;;;48.03;;
50988;SDS011;37008;52.210;21.112;2023-06-22T06:05:42;51.00;;;45.42;;
50988;SDS011;37008;52.210;21.112;2023-06-22T06:08:08;49.28;;;43.90;;
50988;SDS011;37008;52.210;21.112;2023-06-22T06:10:35;48.33;;;43.30;;
50988;SDS011;37008;52.210;21.112;2023-06-22T06:13:02;49.25;;;44.20;;
50988;SDS011;37008;52.210;21.112;2023-06-22T06:15:29;42.25;;;38.05;;
50988;SDS011;37008;52.210;21.112;2023-06-22T06:17:56;38.45;;;34.67;;
50988;SDS011;37008;52.210;21.112;2023-06-22T06:20:22;41.67;;;34.35;;
50988;SDS011;37008;52.210;21.112;2023-06-22T06:22:50;37.78;;;33.83;;
50988;SDS011;37008;52.210;21.112;2023-06-22T06:25:16;36.78;;;33.13;;
50988;SDS011;37008;52.210;21.112;2023-06-22T06:30:31;34.75;;;31.25;;
50988;SDS011;37008;52.210;21.112;2023-06-22T06:32:57;36.15;;;32.42;;
50988;SDS011;37008;52.210;21.112;2023-06-22T06:35:23;38.38;;;32.17;;
50988;SDS011;37008;52.210;21.112;2023-06-22T06:37:49;34.95;;;31.50;;
50988;SDS011;37008;52.210;21.112;2023-06-22T06:40:16;33.83;;;30.52;;
50988;SDS011;37008;52.210;21.112;2023-06-22T06:42:43;32.30;;;29.17;;
50988;SDS011;37008;52.210;21.112;2023-06-22T06:45:11;32.22;;;29.13;;
50988;SDS011;37008;52.210;21.112;2023-06-22T06:47:39;31.73;;;28.33;;
50988;SDS011;37008;52.210;21.112;2023-06-22T06:50:05;31.58;;;28.30;;
50988;SDS011;37008;52.210;21.112;2023-06-22T06:52:31;30.92;;;27.73;;
50988;SDS011;37008;52.210;21.112;2023-06-22T06:54:58;29.45;;;26.58;;
50988;SDS011;37008;52.210;21.112;2023-06-22T06:57:24;28.50;;;25.63;;
50988;SDS011;37008;52.210;21.112;2023-06-22T06:59:56;29.35;;;26.17;;
50988;SDS011;37008;52.210;21.112;2023-06-22T07:02:22;28.75;;;25.92;;
50988;SDS011;37008;52.210;21.112;2023-06-22T07:04:52;29.50;;;26.08;;
50988;SDS011;37008;52.210;21.112;2023-06-22T07:07:20;26.98;;;24.38;;
50988;SDS011;37008;52.210;21.112;2023-06-22T07:09:46;26.40;;;23.85;;
50988;SDS011;37008;52.210;21.112;2023-06-22T07:12:12;26.92;;;24.33;;
50988;SDS011;37008;52.210;21.112;2023-06-22T07:14:37;24.98;;;22.23;;
50988;SDS011;37008;52.210;21.112;2023-06-22T07:17:03;23.95;;;21.63;;
50988;SDS011;37008;52.210;21.112;2023-06-22T07:19:29;28.77;;;23.83;;
50988;SDS011;37008;52.210;21.112;2023-06-22T07:21:56;22.85;;;20.45;;
50988;SDS011;37008;52.210;21.112;2023-06-22T07:24:22;23.38;;;20.88;;
50988;SDS011;37008;52.210;21.112;2023-06-22T07:26:52;24.20;;;20.45;;
50988;SDS011;37008;52.210;21.112;2023-06-22T07:29:18;28.50;;;19.63;;
50988;SDS011;37008;52.210;21.112;2023-06-22T07:31:45;21.90;;;18.52;;
50988;SDS011;37008;52.210;21.112;2023-06-22T07:34:12;21.05;;;18.98;;
50988;SDS011;37008;52.210;21.112;2023-06-22T07:36:38;19.60;;;17.73;;
50988;SDS011;37008;52.210;21.112;2023-06-22T07:39:04;20.50;;;18.15;;
50988;SDS011;37008;52.210;21.112;2023-06-22T07:41:32;19.42;;;16.23;;
50988;SDS011;37008;52.210;21.112;2023-06-22T07:43:58;16.88;;;15.07;;
50988;SDS011;37008;52.210;21.112;2023-06-22T07:46:24;16.42;;;14.73;;
50988;SDS011;37008;52.210;21.112;2023-06-22T07:48:51;18.42;;;15.80;;
50988;SDS011;37008;52.210;21.112;2023-06-22T07:51:17;16.83;;;14.55;;
50988;SDS011;37008;52.210;21.112;2023-06-22T07:53:43;15.98;;;12.85;;
50988;SDS011;37008;52.210;21.112;2023-06-22T07:56:12;20.15;;;11.52;;
50988;SDS011;37008;52.210;21.112;2023-06-22T07:58:38;12.48;;;10.73;;
50988;SDS011;37008;52.210;21.112;2023-06-22T08:01:04;12.98;;;10.98;;
50988;SDS011;37008;52.210;21.112;2023-06-22T08:03:31;11.65;;;9.43;;
50988;SDS011;37008;52.210;21.112;2023-06-22T08:05:57;12.38;;;8.57;;
50988;SDS011;37008;52.210;21.112;2023-06-22T08:08:23;12.30;;;8.65;;
50988;SDS011;37008;52.210;21.112;2023-06-22T08:10:49;7.93;;;7.18;;
50988;SDS011;37008;52.210;21.112;2023-06-22T08:13:14;10.52;;;7.13;;
50988;SDS011;37008;52.210;21.112;2023-06-22T08:15:40;7.85;;;7.05;;
50988;SDS011;37008;52.210;21.112;2023-06-22T08:18:06;9.57;;;7.10;;
50988;SDS011;37008;52.210;21.112;2023-06-22T08:20:31;8.57;;;6.82;;
50988;SDS011;37008;52.210;21.112;2023-06-22T08:22:57;7.63;;;6.30;;
50988;SDS011;37008;52.210;21.112;2023-06-22T08:25:30;9.80;;;6.32;;
50988;SDS011;37008;52.210;21.112;2023-06-22T08:27:55;12.07;;;6.57;;
50988;SDS011;37008;52.210;21.112;2023-06-22T08:30:21;8.05;;;5.53;;
50988;SDS011;37008;52.210;21.112;2023-06-22T08:32:47;7.88;;;5.70;;
50988;SDS011;37008;52.210;21.112;2023-06-22T08:35:14;8.80;;;5.30;;
50988;SDS011;37008;52.210;21.112;2023-06-22T08:37:39;6.60;;;5.13;;
50988;SDS011;37008;52.210;21.112;2023-06-22T08:40:07;11.40;;;5.00;;
50988;SDS011;37008;52.210;21.112;2023-06-22T08:42:35;13.27;;;5.85;;
50988;SDS011;37008;52.210;21.112;2023-06-22T08:45:01;7.43;;;5.95;;
50988;SDS011;37008;52.210;21.112;2023-06-22T08:47:27;7.00;;;5.50;;
50988;SDS011;37008;52.210;21.112;2023-06-22T08:49:53;7.50;;;5.90;;
50988;SDS011;37008;52.210;21.112;2023-06-22T08:52:19;9.57;;;5.22;;
50988;SDS011;37008;52.210;21.112;2023-06-22T08:54:45;33.47;;;5.50;;
50988;SDS011;37008;52.210;21.112;2023-06-22T08:57:11;8.45;;;4.72;;
50988;SDS011;37008;52.210;21.112;2023-06-22T08:59:38;5.80;;;4.15;;
50988;SDS011;37008;52.210;21.112;2023-06-22T09:02:05;6.20;;;4.47;;
50988;SDS011;37008;52.210;21.112;2023-06-22T09:04:30;6.07;;;4.32;;
50988;SDS011;37008;52.210;21.112;2023-06-22T09:06:59;5.90;;;4.68;;
50988;SDS011;37008;52.210;21.112;2023-06-22T09:09:25;7.35;;;5.20;;
50988;SDS011;37008;52.210;21.112;2023-06-22T09:11:51;7.75;;;4.93;;
50988;SDS011;37008;52.210;21.112;2023-06-22T09:14:17;7.13;;;4.40;;
50988;SDS011;37008;52.210;21.112;2023-06-22T09:16:42;4.97;;;4.25;;
50988;SDS011;37008;52.210;21.112;2023-06-22T09:19:08;6.30;;;4.10;;
50988;SDS011;37008;52.210;21.112;2023-06-22T09:21:34;7.78;;;4.10;;
50988;SDS011;37008;52.210;21.112;2023-06-22T09:23:59;7.85;;;4.10;;
50988;SDS011;37008;52.210;21.112;2023-06-22T09:26:25;7.07;;;4.10;;
50988;SDS011;37008;52.210;21.112;2023-06-22T09:28:50;5.82;;;3.97;;
50988;SDS011;37008;52.210;21.112;2023-06-22T09:31:16;8.60;;;4.20;;
50988;SDS011;37008;52.210;21.112;2023-06-22T09:33:43;8.05;;;4.35;;
50988;SDS011;37008;52.210;21.112;2023-06-22T09:36:09;6.75;;;3.67;;
50988;SDS011;37008;52.210;21.112;2023-06-22T09:38:35;10.35;;;3.53;;
50988;SDS011;37008;52.210;21.112;2023-06-22T09:41:01;6.15;;;2.95;;
50988;SDS011;37008;52.210;21.112;2023-06-22T09:43:31;9.48;;;3.42;;
50988;SDS011;37008;52.210;21.112;2023-06-22T09:46:00;6.63;;;3.30;;
50988;SDS011;37008;52.210;21.112;2023-06-22T09:48:27;4.93;;;3.38;;
50988;SDS011;37008;52.210;21.112;2023-06-22T09:50:53;6.20;;;3.38;;
50988;SDS011;37008;52.210;21.112;2023-06-22T09:53:19;5.35;;;3.00;;
50988;SDS011;37008;52.210;21.112;2023-06-22T09:55:44;6.22;;;3.53;;
50988;SDS011;37008;52.210;21.112;2023-06-22T09:58:10;4.82;;;2.70;;
50988;SDS011;37008;52.210;21.112;2023-06-22T10:00:36;6.50;;;3.03;;
50988;SDS011;37008;52.210;21.112;2023-06-22T10:03:01;5.95;;;3.17;;
50988;SDS011;37008;52.210;21.112;2023-06-22T10:05:27;6.18;;;3.13;;
50988;SDS011;37008;52.210;21.112;2023-06-22T10:07:52;5.80;;;3.08;;
50988;SDS011;37008;52.210;21.112;2023-06-22T10:10:18;6.32;;;2.78;;
50988;SDS011;37008;52.210;21.112;2023-06-22T10:12:46;7.88;;;3.25;;
50988;SDS011;37008;52.210;21.112;2023-06-22T10:15:20;4.55;;;3.13;;
50988;SDS011;37008;52.210;21.112;2023-06-22T10:17:46;7.80;;;4.10;;
50988;SDS011;37008;52.210;21.112;2023-06-22T10:20:12;3.58;;;2.85;;
50988;SDS011;37008;52.210;21.112;2023-06-22T10:22:41;5.68;;;3.15;;
50988;SDS011;37008;52.210;21.112;2023-06-22T10:25:09;9.57;;;3.13;;
50988;SDS011;37008;52.210;21.112;2023-06-22T10:27:35;7.47;;;3.45;;
50988;SDS011;37008;52.210;21.112;2023-06-22T10:30:01;4.55;;;3.30;;
50988;SDS011;37008;52.210;21.112;2023-06-22T10:32:27;7.47;;;3.10;;
50988;SDS011;37008;52.210;21.112;2023-06-22T10:34:55;6.22;;;3.70;;
50988;SDS011;37008;52.210;21.112;2023-06-22T10:37:21;7.18;;;3.40;;
50988;SDS011;37008;52.210;21.112;2023-06-22T10:39:47;6.43;;;3.83;;
50988;SDS011;37008;52.210;21.112;2023-06-22T10:42:12;7.55;;;3.58;;
50988;SDS011;37008;52.210;21.112;2023-06-22T10:44:38;7.13;;;4.18;;
50988;SDS011;37008;52.210;21.112;2023-06-22T10:47:07;5.78;;;3.53;;
50988;SDS011;37008;52.210;21.112;2023-06-22T10:49:32;5.40;;;3.58;;
50988;SDS011;37008;52.210;21.112;2023-06-22T10:51:58;4.47;;;3.30;;
50988;SDS011;37008;52.210;21.112;2023-06-22T10:54:24;3.95;;;3.25;;
50988;SDS011;37008;52.210;21.112;2023-06-22T10:56:49;5.63;;;3.42;;
50988;SDS011;37008;52.210;21.112;2023-06-22T10:59:15;9.10;;;4.40;;
50988;SDS011;37008;52.210;21.112;2023-06-22T11:01:41;7.63;;;3.40;;
50988;SDS011;37008;52.210;21.112;2023-06-22T11:04:07;10.23;;;3.70;;
50988;SDS011;37008;52.210;21.112;2023-06-22T11:06:32;8.55;;;3.60;;
50988;SDS011;37008;52.210;21.112;2023-06-22T11:09:01;11.35;;;3.30;;
50988;SDS011;37008;52.210;21.112;2023-06-22T11:11:28;7.38;;;3.30;;
50988;SDS011;37008;52.210;21.112;2023-06-22T11:13:54;5.20;;;3.38;;
50988;SDS011;37008;52.210;21.112;2023-06-22T11:16:19;4.57;;;3.50;;
50988;SDS011;37008;52.210;21.112;2023-06-22T11:18:45;7.90;;;3.70;;
50988;SDS011;37008;52.210;21.112;2023-06-22T11:21:11;7.35;;;4.07;;
50988;SDS011;37008;52.210;21.112;2023-06-22T11:23:36;12.27;;;4.03;;
50988;SDS011;37008;52.210;21.112;2023-06-22T11:26:02;4.50;;;3.58;;
50988;SDS011;37008;52.210;21.112;2023-06-22T11:28:29;4.78;;;3.35;;
50988;SDS011;37008;52.210;21.112;2023-06-22T11:30:55;6.63;;;3.28;;
50988;SDS011;37008;52.210;21.112;2023-06-22T11:33:21;4.53;;;3.65;;
50988;SDS011;37008;52.210;21.112;2023-06-22T11:35:47;9.82;;;3.75;;
50988;SDS011;37008;52.210;21.112;2023-06-22T11:38:13;6.47;;;3.90;;
50988;SDS011;37008;52.210;21.112;2023-06-22T11:40:38;7.20;;;3.58;;
50988;SDS011;37008;52.210;21.112;2023-06-22T11:43:04;6.18;;;4.13;;
50988;SDS011;37008;52.210;21.112;2023-06-22T11:45:29;8.13;;;3.92;;
50988;SDS011;37008;52.210;21.112;2023-06-22T11:47:55;9.15;;;4.15;;
50988;SDS011;37008;52.210;21.112;2023-06-22T11:50:21;10.93;;;4.00;;
50988;SDS011;37008;52.210;21.112;2023-06-22T11:52:47;14.05;;;3.78;;
50988;SDS011;37008;52.210;21.112;2023-06-22T11:55:12;10.15;;;4.10;;
50988;SDS011;37008;52.210;21.112;2023-06-22T11:57:38;6.00;;;3.72;;
50988;SDS011;37008;52.210;21.112;2023-06-22T12:00:19;4.97;;;3.60;;
50988;SDS011;37008;52.210;21.112;2023-06-22T12:02:45;8.48;;;3.92;;
50988;SDS011;37008;52.210;21.112;2023-06-22T12:05:11;7.78;;;3.90;;
50988;SDS011;37008;52.210;21.112;2023-06-22T12:07:37;9.32;;;4.05;;
50988;SDS011;37008;52.210;21.112;2023-06-22T12:10:03;9.52;;;3.78;;
50988;SDS011;37008;52.210;21.112;2023-06-22T12:12:29;11.77;;;4.40;;
50988;SDS011;37008;52.210;21.112;2023-06-22T12:14:54;11.10;;;3.65;;
50988;SDS011;37008;52.210;21.112;2023-06-22T12:17:20;7.53;;;4.30;;
50988;SDS011;37008;52.210;21.112;2023-06-22T12:19:46;6.47;;;3.88;;
50988;SDS011;37008;52.210;21.112;2023-06-22T12:22:11;8.32;;;3.67;;
50988;SDS011;37008;52.210;21.112;2023-06-22T12:24:37;8.85;;;3.63;;
50988;SDS011;37008;52.210;21.112;2023-06-22T12:27:03;5.88;;;3.80;;
50988;SDS011;37008;52.210;21.112;2023-06-22T12:29:29;7.80;;;3.53;;
50988;SDS011;37008;52.210;21.112;2023-06-22T12:31:54;6.05;;;3.92;;
50988;SDS011;37008;52.210;21.112;2023-06-22T12:34:20;8.00;;;4.10;;
50988;SDS011;37008;52.210;21.112;2023-06-22T12:36:45;8.98;;;4.00;;
50988;SDS011;37008;52.210;21.112;2023-06-22T12:39:13;6.30;;;4.07;;
50988;SDS011;37008;52.210;21.112;2023-06-22T12:41:39;8.23;;;4.15;;
50988;SDS011;37008;52.210;21.112;2023-06-22T12:44:04;4.97;;;3.92;;
50988;SDS011;37008;52.210;21.112;2023-06-22T12:46:30;12.52;;;4.03;;
50988;SDS011;37008;52.210;21.112;2023-06-22T12:49:02;4.38;;;3.63;;
50988;SDS011;37008;52.210;21.112;2023-06-22T12:51:29;9.93;;;3.88;;
50988;SDS011;37008;52.210;21.112;2023-06-22T12:53:55;10.13;;;3.63;;
50988;SDS011;37008;52.210;21.112;2023-06-22T12:56:21;9.05;;;4.38;;
50988;SDS011;37008;52.210;21.112;2023-06-22T12:58:46;6.65;;;3.92;;
50988;SDS011;37008;52.210;21.112;2023-06-22T13:01:12;6.70;;;4.18;;
50988;SDS011;37008;52.210;21.112;2023-06-22T13:03:38;9.32;;;4.30;;
50988;SDS011;37008;52.210;21.112;2023-06-22T13:06:04;6.65;;;3.90;;
50988;SDS011;37008;52.210;21.112;2023-06-22T13:08:29;4.70;;;3.90;;
50988;SDS011;37008;52.210;21.112;2023-06-22T13:10:55;7.10;;;4.22;;
50988;SDS011;37008;52.210;21.112;2023-06-22T13:13:25;9.15;;;3.95;;
50988;SDS011;37008;52.210;21.112;2023-06-22T13:15:53;8.13;;;4.00;;
50988;SDS011;37008;52.210;21.112;2023-06-22T13:18:19;8.43;;;4.43;;
50988;SDS011;37008;52.210;21.112;2023-06-22T13:20:44;8.85;;;3.90;;
50988;SDS011;37008;52.210;21.112;2023-06-22T13:23:10;7.65;;;4.22;;
50988;SDS011;37008;52.210;21.112;2023-06-22T13:25:36;5.50;;;4.18;;
50988;SDS011;37008;52.210;21.112;2023-06-22T13:28:02;6.50;;;4.15;;
50988;SDS011;37008;52.210;21.112;2023-06-22T13:30:28;6.00;;;3.80;;
50988;SDS011;37008;52.210;21.112;2023-06-22T13:32:55;7.70;;;4.00;;
50988;SDS011;37008;52.210;21.112;2023-06-22T13:35:21;5.82;;;4.18;;
50988;SDS011;37008;52.210;21.112;2023-06-22T13:37:46;9.18;;;4.18;;
50988;SDS011;37008;52.210;21.112;2023-06-22T13:40:12;4.90;;;3.70;;
50988;SDS011;37008;52.210;21.112;2023-06-22T13:42:37;8.85;;;3.65;;
50988;SDS011;37008;52.210;21.112;2023-06-22T13:45:03;5.63;;;3.70;;
50988;SDS011;37008;52.210;21.112;2023-06-22T13:47:30;8.65;;;3.95;;
50988;SDS011;37008;52.210;21.112;2023-06-22T13:49:56;6.80;;;4.40;;
50988;SDS011;37008;52.210;21.112;2023-06-22T13:52:22;5.32;;;4.00;;
50988;SDS011;37008;52.210;21.112;2023-06-22T13:54:48;5.32;;;4.22;;
50988;SDS011;37008;52.210;21.112;2023-06-22T13:57:13;7.22;;;4.55;;
50988;SDS011;37008;52.210;21.112;2023-06-22T13:59:39;9.60;;;4.20;;
50988;SDS011;37008;52.210;21.112;2023-06-22T14:02:05;9.00;;;4.75;;
50988;SDS011;37008;52.210;21.112;2023-06-22T14:04:31;8.55;;;4.70;;
50988;SDS011;37008;52.210;21.112;2023-06-22T14:06:57;7.75;;;4.10;;
50988;SDS011;37008;52.210;21.112;2023-06-22T14:09:23;6.32;;;3.80;;
50988;SDS011;37008;52.210;21.112;2023-06-22T14:11:48;7.00;;;4.00;;
50988;SDS011;37008;52.210;21.112;2023-06-22T14:14:14;7.28;;;4.40;;
50988;SDS011;37008;52.210;21.112;2023-06-22T14:16:39;4.82;;;4.15;;
50988;SDS011;37008;52.210;21.112;2023-06-22T14:19:05;7.05;;;4.55;;
50988;SDS011;37008;52.210;21.112;2023-06-22T14:21:30;7.05;;;4.43;;
50988;SDS011;37008;52.210;21.112;2023-06-22T14:23:56;6.07;;;4.35;;
50988;SDS011;37008;52.210;21.112;2023-06-22T14:26:22;8.40;;;4.80;;